Time;durP1;ratioP1;P1;durP2;ratioP2;P2;SDS_P1;SDS_P2;PMS_P1;PMS_P2;Temp;Humidity;BMP_temperature;BMP_pressure;BME280_temperature;BME280_humidity;BME280_pressure;Samples;Min_cycle;Max_cycle;Signal;HPM_P1;HPM_P2
2022/04/12 00:00:00;;;;;;;;;4.00;4.00;;;;;18.61;66.20;100299.09;5098317;27;45255;-82
2022/04/12 00:02:28;;;;;;;;;7.00;5.00;;;;;18.69;65.97;100302.63;5077534;27;45291;-82
2022/04/12 00:04:54;;;;;;;;;3.75;3.75;;;;;18.69;66.26;100313.09;5083525;27;45666;-82
2022/04/12 00:07:20;;;;;;;;;3.50;2.25;;;;;18.67;66.65;100313.97;5097123;27;45330;-82
2022/04/12 00:09:46;;;;;;;;;2.50;2.50;;;;;18.65;66.24;100307.84;5089593;27;45717;-82
2022/04/12 00:12:11;;;;;;;;;4.00;4.00;;;;;18.53;66.40;100292.97;5083706;27;45357;-83
2022/04/12 00:14:37;;;;;;;;;3.50;3.50;;;;;18.65;66.72;100305.22;5093529;27;45237;-82
2022/04/12 00:19:47;;;;;;;;;4.25;3.00;;;;;18.56;66.78;100306.94;5097716;27;45712;-82
2022/04/12 00:22:15;;;;;;;;;3.75;3.75;;;;;18.52;66.85;100299.94;5066350;27;45430;-83
2022/04/12 00:24:41;;;;;;;;;5.25;4.25;;;;;18.50;67.65;100299.06;5087287;27;45266;-82
2022/04/12 00:27:07;;;;;;;;;6.50;4.00;;;;;18.37;68.12;100308.59;5089637;27;46238;-82
2022/04/12 00:29:33;;;;;;;;;4.00;3.00;;;;;18.35;68.17;100312.09;5097140;27;45373;-82
2022/04/12 00:32:00;;;;;;;;;3.75;3.50;;;;;18.31;68.69;100316.47;5093628;27;45457;-82
2022/04/12 00:34:26;;;;;;;;;4.75;4.75;;;;;18.27;68.47;100319.06;5080044;27;45430;-82
2022/04/12 00:36:52;;;;;;;;;2.00;2.00;;;;;18.23;69.37;100324.28;5081760;27;45910;-82
2022/04/12 00:39:17;;;;;;;;;3.00;3.00;;;;;18.10;69.46;100301.50;5086400;27;45240;-82
2022/04/12 00:41:44;;;;;;;;;4.00;4.00;;;;;18.04;69.73;100304.94;5088443;27;45404;-82
2022/04/12 00:44:10;;;;;;;;;4.50;3.00;;;;;18.12;70.35;100307.63;5077783;27;45948;-82
2022/04/12 00:46:36;;;;;;;;;3.00;3.00;;;;;18.09;69.93;100318.06;5077279;27;46220;-82
2022/04/12 00:49:03;;;;;;;;;6.00;3.00;;;;;18.06;70.18;100304.97;5077045;28;45429;-82
2022/04/12 00:51:30;;;;;;;;;4.00;3.00;;;;;18.09;70.48;100304.97;5077397;28;45366;-83
2022/04/12 00:53:56;;;;;;;;;3.50;3.50;;;;;18.02;70.54;100287.47;5077715;27;45427;-82
2022/04/12 00:56:24;;;;;;;;;3.50;3.00;;;;;18.10;70.91;100306.72;5076796;28;45312;-82
2022/04/12 00:58:50;;;;;;;;;5.25;4.00;;;;;18.06;70.63;100295.34;5077043;28;45987;-82
2022/04/12 01:01:17;;;;;;;;;4.75;3.00;;;;;18.07;70.90;100301.50;5077534;28;45303;-81
2022/04/12 01:03:42;;;;;;;;;3.00;3.00;;;;;17.95;71.12;100282.19;5077314;27;45618;-81
2022/04/12 01:06:08;;;;;;;;;5.00;4.00;;;;;18.05;71.35;100298.84;5065623;28;47761;-81
2022/04/12 01:08:35;;;;;;;;;4.00;4.00;;;;;17.93;70.79;100277.78;5060040;28;45460;-81
2022/04/12 01:11:06;;;;;;;;;3.25;3.25;;;;;18.06;70.82;100304.97;5077805;28;45294;-82
2022/04/12 01:13:33;;;;;;;;;4.50;4.00;;;;;17.98;71.01;100291.81;5077711;27;45378;-82
2022/04/12 01:15:59;;;;;;;;;4.50;4.50;;;;;17.99;70.92;100296.19;5075257;28;46121;-82
2022/04/12 01:18:25;;;;;;;;;3.00;3.00;;;;;17.94;71.34;100288.28;5059014;28;45538;-82
2022/04/12 01:20:51;;;;;;;;;7.50;4.25;;;;;17.97;71.33;100299.69;5077296;27;45371;-81
2022/04/12 01:23:29;;;;;;;;;3.00;2.75;;;;;17.93;71.26;100302.25;5079630;27;45592;-82
2022/04/12 01:25:56;;;;;;;;;3.00;3.00;;;;;17.89;71.70;100291.75;5065402;28;45604;-82
2022/04/12 01:28:21;;;;;;;;;4.50;3.75;;;;;17.93;71.35;100302.25;5079158;27;45466;-82
2022/04/12 01:30:47;;;;;;;;;3.25;3.25;;;;;17.89;71.16;100289.97;5095757;27;45326;-82
2022/04/12 01:33:13;;;;;;;;;4.00;4.00;;;;;17.87;71.16;100283.84;5081773;27;45567;-82
2022/04/12 01:35:39;;;;;;;;;3.00;3.00;;;;;17.76;71.32;100260.22;5096591;27;45619;-82
2022/04/12 01:38:05;;;;;;;;;3.25;3.00;;;;;17.99;71.05;100297.94;5094584;27;45571;-82
2022/04/12 01:40:31;;;;;;;;;3.25;3.25;;;;;17.89;71.30;100278.66;5097111;27;45325;-82
2022/04/12 01:43:07;;;;;;;;;4.25;3.50;;;;;18.00;71.35;100300.56;5095941;27;45393;-82
2022/04/12 01:45:33;;;;;;;;;3.00;3.00;;;;;17.95;71.49;100305.75;5084777;27;45460;-82
2022/04/12 01:47:58;;;;;;;;;5.25;3.75;;;;;17.97;71.40;100313.66;5075883;27;45463;-82
2022/04/12 01:50:24;;;;;;;;;5.50;4.00;;;;;17.94;71.67;100314.47;5077471;28;45283;-82
2022/04/12 01:52:50;;;;;;;;;4.00;4.00;;;;;17.86;71.65;100316.19;5094951;27;45305;-82
2022/04/12 01:55:16;;;;;;;;;4.50;3.50;;;;;17.85;71.83;100321.38;5096099;27;45407;-82
2022/04/12 01:57:42;;;;;;;;;5.50;3.25;;;;;17.68;72.01;100300.31;5092789;27;45423;-82
2022/04/12 02:00:08;;;;;;;;;2.00;1.50;;;;;17.63;72.43;100295.94;5096113;27;45414;-82
2022/04/12 02:02:34;;;;;;;;;4.00;4.00;;;;;17.63;72.17;100301.16;5096443;27;45536;-82
2022/04/12 02:05:00;;;;;;;;;5.25;5.25;;;;;17.70;72.76;100309.06;5079598;27;45419;-82
2022/04/12 02:07:27;;;;;;;;;4.25;4.25;;;;;17.70;73.27;100314.28;5076576;27;45351;-82
2022/04/12 02:09:53;;;;;;;;;4.00;4.00;;;;;17.66;73.40;100296.78;5085455;27;45250;-82
2022/04/12 02:12:19;;;;;;;;;3.25;3.25;;;;;17.59;73.38;100281.06;5072741;28;45349;-82
2022/04/12 02:14:45;;;;;;;;;4.75;4.00;;;;;17.63;73.32;100281.94;5090772;27;45429;-82
2022/04/12 02:17:10;;;;;;;;;4.75;4.00;;;;;17.62;73.50;100283.72;5076031;27;45694;-82
2022/04/12 02:19:36;;;;;;;;;6.75;5.00;;;;;17.53;73.67;100285.38;5095180;27;45427;-82
2022/04/12 02:22:02;;;;;;;;;4.75;3.75;;;;;17.54;74.16;100279.28;5081694;27;45559;-82
2022/04/12 02:24:27;;;;;;;;;4.25;4.00;;;;;17.54;73.95;100276.66;5083482;27;45455;-83
2022/04/12 02:26:53;;;;;;;;;6.00;4.50;;;;;17.54;73.90;100279.28;5081261;27;45392;-83
2022/04/12 02:29:18;;;;;;;;;6.25;5.00;;;;;17.45;73.88;100260.03;5090594;27;45532;-83
2022/04/12 02:31:44;;;;;;;;;3.50;3.25;;;;;17.58;74.05;100273.22;5092301;27;45448;-82
2022/04/12 02:34:09;;;;;;;;;3.00;3.00;;;;;17.54;73.63;100269.69;5088519;27;46206;-82
2022/04/12 02:36:35;;;;;;;;;3.50;3.50;;;;;17.37;73.42;100243.41;5078944;27;45456;-82
2022/04/12 02:39:02;;;;;;;;;3.00;3.00;;;;;17.51;73.69;100268.78;5079582;27;45288;-82
2022/04/12 02:41:28;;;;;;;;;5.00;4.00;;;;;17.59;73.07;100288.91;5069031;27;45600;-82
2022/04/12 02:43:54;;;;;;;;;5.00;4.00;;;;;17.44;72.84;100284.44;5089229;27;45823;-82
2022/04/12 02:46:19;;;;;;;;;4.25;4.25;;;;;17.21;72.45;100262.44;5085963;27;45842;-82
2022/04/12 02:48:45;;;;;;;;;5.50;4.00;;;;;17.34;73.17;100287.84;5084667;27;45466;-82
2022/04/12 02:51:10;;;;;;;;;3.75;2.50;;;;;17.26;72.89;100279.06;5086475;27;45563;-82
2022/04/12 02:53:36;;;;;;;;;5.25;4.00;;;;;17.35;72.98;100291.31;5087219;27;45296;-82
2022/04/12 02:56:02;;;;;;;;;4.25;4.25;;;;;17.33;73.13;100281.72;5097680;27;45426;-82
2022/04/12 02:58:28;;;;;;;;;6.00;4.00;;;;;17.35;73.00;100291.31;5099416;27;45819;-82
2022/04/12 03:00:53;;;;;;;;;5.25;5.25;;;;;17.28;73.03;100286.06;5079120;27;45576;-82
2022/04/12 03:03:19;;;;;;;;;4.00;4.00;;;;;17.28;73.18;100291.28;5087766;27;45593;-82
2022/04/12 03:05:44;;;;;;;;;4.25;4.00;;;;;17.28;73.33;100279.94;5095027;27;45465;-82
2022/04/12 03:08:11;;;;;;;;;4.50;3.50;;;;;17.28;73.23;100286.06;5099108;27;45360;-82
2022/04/12 03:10:37;;;;;;;;;4.00;4.00;;;;;17.07;73.00;100233.53;5089376;27;45440;-82
2022/04/12 03:13:02;;;;;;;;;4.75;4.00;;;;;17.24;73.07;100254.63;5077959;27;46228;-82
2022/04/12 03:15:28;;;;;;;;;4.00;4.00;;;;;17.23;73.18;100239.78;5080107;27;45512;-82
2022/04/12 03:17:57;;;;;;;;;4.50;4.25;;;;;17.26;73.46;100250.28;5093386;27;45476;-82
2022/04/12 03:20:22;;;;;;;;;4.00;4.00;;;;;17.30;73.51;100259.88;5080212;27;45485;-82
2022/04/12 03:22:48;;;;;;;;;3.50;3.50;;;;;17.30;73.30;100260.78;5079518;28;45350;-83
2022/04/12 03:25:14;;;;;;;;;3.00;3.00;;;;;17.16;73.23;100233.63;5078441;28;45416;-83
2022/04/12 03:27:40;;;;;;;;;3.50;3.00;;;;;17.31;73.32;100256.41;5078668;27;45488;-83
2022/04/12 03:30:06;;;;;;;;;4.50;3.50;;;;;17.22;72.99;100246.78;5078591;27;45450;-82
2022/04/12 03:32:32;;;;;;;;;3.00;3.00;;;;;17.21;72.69;100242.41;5078479;27;45407;-81
2022/04/12 03:34:57;;;;;;;;;3.75;3.00;;;;;17.33;72.37;100267.78;5096672;27;45285;-83
2022/04/12 03:37:23;;;;;;;;;6.00;5.00;;;;;17.25;72.01;100251.16;5079624;27;45241;-81
2022/04/12 03:39:50;;;;;;;;;3.50;3.00;;;;;17.29;72.29;100250.28;5080336;27;45270;-81
2022/04/12 03:42:18;;;;;;;;;5.75;3.50;;;;;17.35;72.08;100270.38;5097635;27;45251;-83
2022/04/12 03:44:45;;;;;;;;;5.25;4.00;;;;;17.23;71.19;100260.72;5089643;27;45300;-83
2022/04/12 03:47:11;;;;;;;;;4.25;4.00;;;;;17.17;71.15;100285.06;5078320;28;45325;-83
2022/04/12 03:49:37;;;;;;;;;3.75;3.75;;;;;17.06;71.11;100289.34;5078679;28;45522;-83
2022/04/12 03:52:03;;;;;;;;;3.25;3.25;;;;;16.90;71.51;100285.66;5078008;27;46041;-83
2022/04/12 03:54:29;;;;;;;;;4.25;3.25;;;;;16.74;71.53;100258.47;5078277;28;45232;-83
2022/04/12 03:56:55;;;;;;;;;4.50;3.00;;;;;16.70;72.17;100247.97;5077775;27;45427;-83
2022/04/12 03:59:24;;;;;;;;;4.75;3.00;;;;;16.93;72.18;100270.88;5080451;27;45386;-83
2022/04/12 04:01:49;;;;;;;;;3.00;3.00;;;;;16.90;71.96;100260.38;5087907;27;46143;-82
2022/04/12 04:04:16;;;;;;;;;3.75;3.75;;;;;16.89;71.62;100249.91;5081942;27;45388;-84
2022/04/12 04:06:45;;;;;;;;;3.25;3.00;;;;;16.85;71.32;100242.03;5080306;27;45402;-83
2022/04/12 04:09:15;;;;;;;;;5.25;3.50;;;;;16.70;71.37;100206.16;5071420;28;45340;-82
2022/04/12 04:11:40;;;;;;;;;5.00;5.00;;;;;16.69;70.63;100216.59;5076920;27;47839;-83
2022/04/12 04:14:06;;;;;;;;;4.00;4.00;;;;;16.86;70.18;100264.69;5077809;27;45429;-81
2022/04/12 04:16:33;;;;;;;;;3.75;3.75;;;;;16.59;70.53;100253.97;5077582;27;45230;-83
2022/04/12 04:19:01;;;;;;;;;3.00;3.00;;;;;16.65;70.20;100285.38;5078290;28;45382;-83
2022/04/12 04:21:26;;;;;;;;;4.25;4.00;;;;;16.51;70.64;100266.94;5076361;28;47192;-82
2022/04/12 04:23:52;;;;;;;;;4.00;3.50;;;;;16.35;70.31;100244.97;5077169;28;45311;-81
2022/04/12 04:26:18;;;;;;;;;3.75;2.75;;;;;16.45;70.59;100274.72;5078137;28;45386;-82
2022/04/12 04:28:45;;;;;;;;;3.25;2.50;;;;;16.43;70.58;100274.66;5078178;27;45324;-82
2022/04/12 04:31:11;;;;;;;;;4.25;4.25;;;;;16.44;70.37;100284.28;5059076;28;46884;-81
2022/04/12 04:33:36;;;;;;;;;3.00;1.75;;;;;16.35;69.97;100292.88;5077443;28;45421;-81
2022/04/12 04:36:02;;;;;;;;;2.75;2.75;;;;;16.26;70.12;100287.53;5077269;27;45189;-82
2022/04/12 04:38:28;;;;;;;;;3.50;3.00;;;;;16.16;70.09;100285.66;5077681;28;45588;-81
2022/04/12 04:40:54;;;;;;;;;4.00;3.00;;;;;16.02;70.15;100290.69;5076744;28;45846;-82
2022/04/12 04:43:19;;;;;;;;;3.00;3.00;;;;;15.99;70.71;100301.06;5058429;27;45286;-80
2022/04/12 04:45:45;;;;;;;;;5.00;4.75;;;;;15.88;70.93;100291.34;5077718;28;45178;-81
2022/04/12 04:48:11;;;;;;;;;3.00;3.00;;;;;15.82;71.18;100283.41;5081040;27;45481;-81
2022/04/12 04:50:37;;;;;;;;;4.50;3.00;;;;;15.72;71.20;100285.00;5098017;27;45393;-82
2022/04/12 04:53:05;;;;;;;;;3.50;2.25;;;;;15.62;70.50;100281.41;5082413;27;45515;-82
2022/04/12 04:55:33;;;;;;;;;6.00;4.25;;;;;15.69;71.39;100303.25;5065231;27;45489;-80
2022/04/12 04:57:59;;;;;;;;;3.00;3.00;;;;;15.57;70.94;100295.22;5082651;27;45332;-81
2022/04/12 05:00:29;;;;;;;;;4.50;4.00;;;;;15.56;71.26;100290.84;5077019;27;45425;-82
2022/04/12 05:02:56;;;;;;;;;5.50;3.00;;;;;15.57;70.86;100280.44;5082234;27;45857;-82
2022/04/12 05:05:23;;;;;;;;;2.00;2.00;;;;;15.68;70.51;100301.50;5091781;27;45512;-83
2022/04/12 05:07:50;;;;;;;;;1.50;1.50;;;;;15.67;70.45;100296.22;5078831;27;45509;-82
2022/04/12 05:10:18;;;;;;;;;4.25;4.25;;;;;15.66;70.54;100304.94;5065402;28;45607;-82
2022/04/12 05:12:44;;;;;;;;;8.75;7.50;;;;;15.57;70.65;100300.44;5069026;27;45965;-82
2022/04/12 05:15:10;;;;;;;;;4.25;3.00;;;;;15.51;70.52;100300.31;5083832;27;45454;-83
2022/04/12 05:17:36;;;;;;;;;3.25;3.25;;;;;15.62;70.70;100322.25;5079730;27;45523;-83
2022/04/12 05:20:02;;;;;;;;;3.00;3.00;;;;;15.58;70.76;100336.97;5073131;27;46015;-82
2022/04/12 05:22:28;;;;;;;;;3.25;3.25;;;;;15.60;70.88;100330.06;5078997;27;45792;-82
2022/04/12 05:24:54;;;;;;;;;4.25;3.25;;;;;15.60;71.37;100309.19;5079773;27;45305;-83
2022/04/12 05:27:21;;;;;;;;;3.50;2.50;;;;;15.72;71.18;100318.94;5081153;27;45634;-83
2022/04/12 05:29:47;;;;;;;;;4.50;4.00;;;;;15.68;70.51;100308.41;5089610;27;45900;-84
2022/04/12 05:32:13;;;;;;;;;4.00;3.50;;;;;15.68;70.54;100300.59;5100444;27;45429;-83
2022/04/12 05:34:43;;;;;;;;;3.75;2.50;;;;;15.90;70.36;100327.94;5090038;27;45446;-83
2022/04/12 05:37:11;;;;;;;;;4.25;2.75;;;;;15.86;69.70;100318.31;5078636;27;45346;-83
2022/04/12 05:39:37;;;;;;;;;4.25;3.25;;;;;15.93;70.17;100341.03;5084631;27;46476;-78
2022/04/12 05:42:03;;;;;;;;;4.75;4.75;;;;;16.01;70.10;100335.94;5076695;27;45378;-85
2022/04/12 05:44:32;;;;;;;;;7.75;6.00;;;;;16.01;69.92;100322.88;5084477;27;45336;-84
2022/04/12 05:47:00;;;;;;;;;5.00;5.00;;;;;16.15;69.54;100333.50;5087918;27;45305;-84
2022/04/12 05:49:26;;;;;;;;;5.25;3.75;;;;;16.17;69.42;100332.69;5076055;27;45378;-86
2022/04/12 05:51:51;;;;;;;;;3.25;3.25;;;;;16.11;68.97;100322.16;5076103;27;45350;-79
2022/04/12 05:54:17;;;;;;;;;3.25;3.25;;;;;16.26;68.81;100352.81;5089655;27;46772;-80
2022/04/12 05:56:43;;;;;;;;;4.25;3.50;;;;;16.25;68.70;100351.97;5081539;27;45501;-81
2022/04/12 05:59:09;;;;;;;;;4.75;4.00;;;;;16.28;68.93;100350.25;5088361;27;45377;-78
2022/04/12 06:01:35;;;;;;;;;6.00;3.00;;;;;16.30;68.78;100353.78;5084165;27;45632;-79
2022/04/12 06:04:00;;;;;;;;;4.00;4.00;;;;;16.33;68.74;100353.78;5080694;27;45515;-79
2022/04/12 06:06:27;;;;;;;;;4.75;4.00;;;;;16.28;68.38;100350.25;5083086;27;45407;-79
2022/04/12 06:08:53;;;;;;;;;5.00;4.25;;;;;16.28;68.55;100351.13;5087126;27;46336;-86
2022/04/12 06:11:19;;;;;;;;;4.75;4.25;;;;;16.30;68.66;100351.16;5067341;27;45304;-85
2022/04/12 06:13:45;;;;;;;;;4.00;4.00;;;;;16.21;68.67;100325.78;5080461;27;45999;-85
2022/04/12 06:16:11;;;;;;;;;6.50;5.25;;;;;16.35;68.34;100350.38;5072319;27;45204;-86
2022/04/12 06:18:36;;;;;;;;;4.00;3.75;;;;;16.36;68.25;100357.31;5080766;27;46201;-80
2022/04/12 06:21:02;;;;;;;;;4.50;3.50;;;;;16.34;68.06;100347.72;5081812;27;45402;-86
2022/04/12 06:23:30;;;;;;;;;4.00;4.00;;;;;16.50;67.92;100360.13;5062680;27;45564;-83
2022/04/12 06:25:56;;;;;;;;;5.75;4.25;;;;;16.43;67.26;100346.97;5078065;28;45488;-80
2022/04/12 06:28:21;;;;;;;;;5.50;5.50;;;;;16.54;67.19;100363.66;5077716;27;46336;-82
2022/04/12 06:30:50;;;;;;;;;4.50;4.00;;;;;16.39;67.25;100352.16;5078227;27;45378;-82
2022/04/12 06:33:16;;;;;;;;;5.25;5.00;;;;;16.56;66.46;100375.88;5077462;27;45624;-80
2022/04/12 06:35:41;;;;;;;;;4.00;3.75;;;;;16.44;66.00;100362.66;5091715;27;45173;-83
2022/04/12 06:38:08;;;;;;;;;4.25;4.25;;;;;16.53;65.96;100390.66;5078794;27;46279;-80
2022/04/12 06:40:35;;;;;;;;;20.50;14.00;;;;;16.39;65.25;100375.66;5078407;27;46049;-81
2022/04/12 06:43:02;;;;;;;;;3.50;3.50;;;;;16.54;65.78;100402.88;5078375;28;45469;-84
2022/04/12 06:45:28;;;;;;;;;4.25;4.25;;;;;16.43;65.53;100394.88;5077348;28;45609;-83
2022/04/12 06:47:56;;;;;;;;;4.00;4.00;;;;;16.42;64.90;100389.63;5074964;27;46088;-83
2022/04/12 06:50:22;;;;;;;;;4.75;3.00;;;;;16.47;64.04;100411.47;5077306;27;45389;-83
2022/04/12 06:52:48;;;;;;;;;4.50;4.00;;;;;16.38;63.99;100407.88;5078294;28;45487;-83
2022/04/12 06:55:16;;;;;;;;;3.25;2.75;;;;;16.29;64.19;100418.19;5078369;28;45452;-83
2022/04/12 06:57:43;;;;;;;;;6.50;3.75;;;;;16.13;64.92;100409.25;5079551;28;45619;-84
2022/04/12 07:00:09;;;;;;;;;5.00;4.25;;;;;16.13;65.11;100413.59;5082557;27;45347;-83
2022/04/12 07:02:36;;;;;;;;;5.25;4.50;;;;;16.23;65.16;100426.81;5080671;27;45216;-83
2022/04/12 07:05:03;;;;;;;;;4.00;4.00;;;;;16.25;64.58;100438.16;5078070;28;45715;-84
2022/04/12 07:07:29;;;;;;;;;4.00;2.50;;;;;16.22;64.86;100434.63;5060251;28;46477;-84
2022/04/12 07:09:55;;;;;;;;;6.00;3.25;;;;;16.28;64.88;100428.63;5079925;27;45490;-86
2022/04/12 07:12:21;;;;;;;;;4.00;3.00;;;;;16.08;64.96;100390.03;5082969;28;45481;-84
2022/04/12 07:14:47;;;;;;;;;4.00;3.50;;;;;16.08;65.30;100400.47;5079189;27;45554;-83
2022/04/12 07:17:12;;;;;;;;;3.00;3.00;;;;;16.25;64.94;100432.06;5077369;28;46092;-84
2022/04/12 07:19:38;;;;;;;;;5.00;5.00;;;;;16.38;64.65;100448.81;5078782;27;45215;-83
2022/04/12 07:22:04;;;;;;;;;6.00;3.25;;;;;16.41;64.17;100451.47;5059470;28;45554;-77
2022/04/12 07:24:31;;;;;;;;;3.50;3.50;;;;;16.29;64.06;100438.22;5077876;28;45288;-82
2022/04/12 07:26:56;;;;;;;;;5.75;2.75;;;;;16.33;64.20;100440.91;5076495;28;46128;-84
2022/04/12 07:29:22;;;;;;;;;4.75;3.25;;;;;16.38;63.59;100436.59;5077465;27;45351;-82
2022/04/12 07:31:48;;;;;;;;;3.50;3.50;;;;;16.50;63.82;100448.09;5079484;27;45460;-81
2022/04/12 07:34:14;;;;;;;;;4.75;4.00;;;;;16.52;63.82;100457.72;5078219;28;45430;-81
2022/04/12 07:36:43;;;;;;;;;4.50;3.50;;;;;16.49;63.78;100436.78;5060030;28;46395;-83
2022/04/12 07:39:09;;;;;;;;;2.75;2.75;;;;;16.57;63.48;100460.41;5078544;28;45624;-83
2022/04/12 07:41:35;;;;;;;;;2.25;2.25;;;;;16.56;63.53;100456.03;5078883;27;45253;-83
2022/04/12 07:44:01;;;;;;;;;4.75;3.00;;;;;16.45;63.84;100429.75;5079063;28;45692;-82
2022/04/12 07:46:26;;;;;;;;;3.75;3.75;;;;;16.51;64.16;100450.75;5079474;28;45582;-81
2022/04/12 07:48:52;;;;;;;;;3.75;3.75;;;;;16.43;64.17;100415.78;5078712;27;45461;-81
2022/04/12 07:51:18;;;;;;;;;5.25;3.00;;;;;16.52;63.91;100444.63;5078867;27;45427;-83
2022/04/12 07:53:43;;;;;;;;;4.50;4.00;;;;;16.37;63.92;100410.47;5078596;28;45332;-83
2022/04/12 07:56:09;;;;;;;;;4.25;3.25;;;;;16.63;64.19;100457.88;5077185;28;45800;-81
2022/04/12 07:58:35;;;;;;;;;7.00;5.00;;;;;16.48;63.43;100419.34;5077774;27;45313;-82
2022/04/12 08:01:00;;;;;;;;;3.25;3.25;;;;;16.80;63.47;100449.38;5077308;28;45402;-81
2022/04/12 08:03:26;;;;;;;;;4.00;3.00;;;;;16.85;63.59;100450.31;5077690;27;45707;-80
2022/04/12 08:05:52;;;;;;;;;4.00;4.00;;;;;16.82;63.29;100438.09;5077435;27;45359;-82
2022/04/12 08:08:18;;;;;;;;;7.75;5.75;;;;;16.91;63.13;100447.78;5078361;28;45450;-82
2022/04/12 08:10:44;;;;;;;;;3.25;3.00;;;;;16.96;62.51;100437.41;5077794;28;45390;-83
2022/04/12 08:13:10;;;;;;;;;4.25;4.00;;;;;16.92;62.70;100426.00;5077661;28;45363;-83
2022/04/12 08:15:38;;;;;;;;;3.00;2.75;;;;;16.92;62.49;100410.31;5077379;28;46132;-82
2022/04/12 08:18:05;;;;;;;;;5.75;4.00;;;;;17.01;62.23;100430.50;5077405;27;45288;-83
2022/04/12 08:20:30;;;;;;;;;3.00;2.00;;;;;17.03;61.97;100423.56;5077265;28;45361;-81
2022/04/12 08:22:56;;;;;;;;;4.00;2.75;;;;;17.09;62.09;100425.38;5077470;27;45509;-81
2022/04/12 08:25:22;;;;;;;;;3.00;3.00;;;;;17.14;61.15;100418.44;5077339;28;45307;-81
2022/04/12 08:27:48;;;;;;;;;2.75;2.75;;;;;17.31;60.96;100445.69;5082494;28;45342;-83
2022/04/12 08:30:14;;;;;;;;;1.25;0.75;;;;;17.36;60.58;100442.22;5083328;27;45353;-82
2022/04/12 08:32:39;;;;;;;;;2.25;2.25;;;;;17.31;60.05;100432.63;5078288;27;45280;-81
2022/04/12 08:35:06;;;;;;;;;5.00;2.75;;;;;17.47;59.62;100451.09;5076956;28;45829;-81
2022/04/12 08:37:32;;;;;;;;;3.50;3.50;;;;;17.37;59.66;100418.72;5077184;28;45280;-81
2022/04/12 08:39:58;;;;;;;;;2.50;2.50;;;;;17.57;58.56;100438.97;5077318;27;45456;-80
2022/04/12 08:42:23;;;;;;;;;5.00;2.00;;;;;17.52;58.57;100425.84;5077492;28;45390;-81
2022/04/12 08:44:50;;;;;;;;;2.00;2.00;;;;;17.62;59.09;100432.03;5077118;28;45983;-81
2022/04/12 08:47:17;;;;;;;;;1.00;1.00;;;;;17.66;58.16;100435.56;5077291;28;45475;-81
2022/04/12 08:49:44;;;;;;;;;3.50;1.00;;;;;17.63;58.08;100421.59;5077082;27;45378;-79
2022/04/12 08:52:11;;;;;;;;;2.00;2.00;;;;;17.75;58.22;100435.66;5077295;27;45917;-80
2022/04/12 08:54:46;;;;;;;;;2.75;2.00;;;;;17.87;56.92;100435.75;5076337;27;46180;-79
2022/04/12 08:57:12;;;;;;;;;3.50;3.00;;;;;17.90;56.64;100438.41;5076250;27;45201;-78
2022/04/12 08:59:41;;;;;;;;;3.50;2.00;;;;;17.92;56.13;100446.28;5075365;27;45438;-78
2022/04/12 09:02:10;;;;;;;;;3.00;2.00;;;;;17.84;56.60;100434.84;5076442;28;45422;-81
2022/04/12 09:04:38;;;;;;;;;2.00;2.00;;;;;17.97;56.72;100449.84;5076502;28;46165;-80
2022/04/12 09:07:11;;;;;;;;;2.00;2.00;;;;;17.97;57.14;100442.00;5076737;27;45346;-81
2022/04/12 09:09:39;;;;;;;;;4.50;2.00;;;;;18.05;56.77;100444.69;5078448;27;45267;-81
2022/04/12 09:12:08;;;;;;;;;1.75;1.50;;;;;18.00;56.15;100443.75;5077167;27;45649;-81
2022/04/12 09:14:48;;;;;;;;;1.75;1.75;;;;;18.03;56.19;100454.25;5079318;28;46642;-81
2022/04/12 09:17:18;;;;;;;;;3.00;2.00;;;;;18.03;56.23;100451.63;5079430;27;45725;-80
2022/04/12 09:19:49;;;;;;;;;1.00;1.00;;;;;18.06;56.67;100433.34;5077066;28;45319;-82
2022/04/12 09:22:24;;;;;;;;;1.75;1.75;;;;;18.06;56.67;100433.34;5077509;27;45314;-82
2022/04/12 09:24:52;;;;;;;;;3.00;2.00;;;;;18.02;57.57;100426.31;5076843;28;45719;-81
2022/04/12 09:27:22;;;;;;;;;1.50;1.50;;;;;18.12;57.35;100432.50;5058378;28;45425;-80
2022/04/12 09:29:56;;;;;;;;;2.00;1.00;;;;;18.02;56.29;100403.63;5058157;28;45488;-82
2022/04/12 09:32:24;;;;;;;;;1.00;1.00;;;;;18.12;56.60;100422.88;5076874;28;45268;-82
2022/04/12 09:34:51;;;;;;;;;3.25;2.00;;;;;18.18;56.86;100428.19;5076623;28;45514;-81
2022/04/12 09:37:19;;;;;;;;;1.00;1.00;;;;;18.25;56.70;100416.00;5075343;28;45645;-81
2022/04/12 09:40:13;;;;;;;;;1.75;1.75;;;;;18.32;57.40;100420.41;5076505;28;45314;-80
2022/04/12 09:42:49;;;;;;;;;1.00;1.00;;;;;18.34;56.98;100413.44;5076335;27;45593;-79
2022/04/12 09:45:23;;;;;;;;;2.75;2.00;;;;;18.46;57.02;100423.13;5075895;27;46802;-81
2022/04/12 09:47:52;;;;;;;;;3.00;1.75;;;;;18.48;56.04;100423.13;5076744;28;45233;-83
2022/04/12 09:50:22;;;;;;;;;2.00;1.00;;;;;18.43;56.84;100410.00;5076618;28;45287;-81
2022/04/12 09:52:56;;;;;;;;;2.25;2.25;;;;;18.43;56.88;100409.13;5076413;28;45554;-81
2022/04/12 09:55:52;;;;;;;;;2.00;2.00;;;;;18.50;56.51;100411.81;5075734;27;45544;-81
2022/04/12 09:58:21;;;;;;;;;1.00;1.00;;;;;18.49;56.07;100402.19;5059556;28;45626;-82
2022/04/12 10:00:48;;;;;;;;;1.00;1.00;;;;;18.39;56.52;100382.03;5079888;28;45386;-82
2022/04/12 10:03:16;;;;;;;;;1.25;1.25;;;;;18.56;56.32;100401.34;5078183;28;45329;-83
2022/04/12 10:05:43;;;;;;;;;1.75;1.00;;;;;18.59;56.16;100412.72;5075564;27;45382;-80
2022/04/12 10:08:10;;;;;;;;;1.50;1.00;;;;;18.63;56.16;100411.84;5075351;27;45192;-81
2022/04/12 10:10:36;;;;;;;;;1.00;1.00;;;;;18.63;56.37;100415.34;5076245;28;45341;-82
2022/04/12 10:13:02;;;;;;;;;4.75;2.00;;;;;18.67;56.88;100405.75;5075888;28;45372;-83
2022/04/12 10:15:28;;;;;;;;;4.00;3.00;;;;;18.72;56.68;100399.66;5075924;28;45644;-81
2022/04/12 10:17:56;;;;;;;;;2.50;0.75;;;;;18.62;56.57;100362.91;5075408;27;45357;-82
2022/04/12 10:20:22;;;;;;;;;3.75;1.00;;;;;18.80;56.13;100381.34;5073821;28;45353;-82
2022/04/12 10:22:50;;;;;;;;;2.00;2.00;;;;;18.77;56.85;100362.09;5075666;28;45522;-81
2022/04/12 10:25:18;;;;;;;;;3.00;1.00;;;;;18.86;57.72;100365.63;5075818;28;45354;-81
2022/04/12 10:27:46;;;;;;;;;2.25;0.75;;;;;18.98;56.48;100370.06;5075282;28;45775;-82
2022/04/12 10:30:17;;;;;;;;;1.25;0.50;;;;;19.05;56.75;100352.59;5075198;28;45327;-82
2022/04/12 10:33:06;;;;;;;;;2.25;2.25;;;;;19.16;56.89;100350.88;5075580;28;45307;-82
2022/04/12 10:35:54;;;;;;;;;15.00;14.50;;;;;19.29;56.46;100357.03;5075237;27;45353;-82
2022/04/12 10:38:22;;;;;;;;;2.50;2.50;;;;;19.39;56.05;100363.13;5075468;28;45773;-81
2022/04/12 10:40:53;;;;;;;;;2.75;2.00;;;;;19.33;55.65;100343.00;5075944;28;45324;-81
2022/04/12 10:43:36;;;;;;;;;1.00;1.00;;;;;19.36;56.04;100330.78;5076297;28;45312;-81
2022/04/12 10:46:03;;;;;;;;;2.00;2.00;;;;;19.52;56.05;100371.94;5076065;27;45447;-80
2022/04/12 10:48:30;;;;;;;;;2.75;2.00;;;;;19.44;56.25;100361.41;5082085;28;45225;-82
2022/04/12 10:50:59;;;;;;;;;2.00;1.00;;;;;19.54;56.69;100387.66;5081860;27;45359;-81
2022/04/12 10:53:37;;;;;;;;;1.00;1.00;;;;;19.58;56.32;100399.94;5079343;28;45390;-84
2022/04/12 10:56:10;;;;;;;;;3.00;1.50;;;;;19.58;56.10;100381.56;5059944;28;45644;-82
2022/04/12 10:58:36;;;;;;;;;5.75;2.00;;;;;19.62;56.87;100397.31;5078482;27;45326;-81
2022/04/12 11:01:04;;;;;;;;;2.00;2.00;;;;;19.66;55.93;100392.94;5078169;28;45297;-81
2022/04/12 11:03:41;;;;;;;;;2.75;1.50;;;;;19.71;56.42;100406.94;5078808;28;45724;-81
2022/04/12 11:06:14;;;;;;;;;2.00;2.00;;;;;19.73;55.93;100412.22;5077909;28;45706;-81
2022/04/12 11:08:43;;;;;;;;;2.75;2.00;;;;;19.80;56.76;100412.22;5078296;27;45606;-82
2022/04/12 11:11:10;;;;;;;;;3.00;3.00;;;;;19.77;55.84;100420.09;5078023;28;45532;-81
2022/04/12 11:13:36;;;;;;;;;2.50;2.50;;;;;19.91;55.89;100449.03;5078714;28;45495;-84
2022/04/12 11:16:12;;;;;;;;;3.00;2.00;;;;;19.93;55.33;100451.63;5059703;28;45723;-81
2022/04/12 11:18:53;;;;;;;;;1.50;1.50;;;;;19.95;55.48;100432.38;5078445;28;45629;-81
2022/04/12 11:21:26;;;;;;;;;2.25;2.25;;;;;19.98;54.68;100425.38;5079287;28;45347;-82
2022/04/12 11:23:55;;;;;;;;;4.00;3.00;;;;;20.15;54.70;100435.88;5078557;28;45387;-82
2022/04/12 11:26:40;;;;;;;;;2.00;1.00;;;;;20.21;54.57;100441.13;5078176;28;45537;-81